sensor_id;sensor_type;location;lat;lon;timestamp;P1;durP1;ratioP1;P2;durP2;ratioP2
25824;SDS011;13658;44.534;18.694;2022-12-07T00:01:08;118.88;;;63.70;;
25824;SDS011;13658;44.534;18.694;2022-12-07T00:03:35;107.38;;;58.33;;
25824;SDS011;13658;44.534;18.694;2022-12-07T00:06:02;103.53;;;56.72;;
25824;SDS011;13658;44.534;18.694;2022-12-07T00:08:29;103.93;;;55.85;;
25824;SDS011;13658;44.534;18.694;2022-12-07T00:11:00;113.55;;;62.05;;
25824;SDS011;13658;44.534;18.694;2022-12-07T00:13:30;153.30;;;79.95;;
25824;SDS011;13658;44.534;18.694;2022-12-07T00:16:00;164.52;;;84.95;;
25824;SDS011;13658;44.534;18.694;2022-12-07T00:18:32;171.40;;;93.05;;
25824;SDS011;13658;44.534;18.694;2022-12-07T00:20:59;179.02;;;93.93;;
25824;SDS011;13658;44.534;18.694;2022-12-07T00:23:45;178.55;;;92.68;;
25824;SDS011;13658;44.534;18.694;2022-12-07T00:26:13;185.88;;;98.80;;
25824;SDS011;13658;44.534;18.694;2022-12-07T00:28:45;193.52;;;99.45;;
25824;SDS011;13658;44.534;18.694;2022-12-07T00:31:16;185.77;;;97.50;;
25824;SDS011;13658;44.534;18.694;2022-12-07T00:33:43;177.82;;;92.47;;
25824;SDS011;13658;44.534;18.694;2022-12-07T00:36:10;178.60;;;91.07;;
25824;SDS011;13658;44.534;18.694;2022-12-07T00:38:41;147.98;;;80.45;;
25824;SDS011;13658;44.534;18.694;2022-12-07T00:41:09;162.07;;;86.68;;
25824;SDS011;13658;44.534;18.694;2022-12-07T00:43:37;145.05;;;76.97;;
25824;SDS011;13658;44.534;18.694;2022-12-07T00:46:04;151.75;;;82.40;;
25824;SDS011;13658;44.534;18.694;2022-12-07T00:48:30;162.10;;;88.47;;
25824;SDS011;13658;44.534;18.694;2022-12-07T00:50:56;147.43;;;81.35;;
25824;SDS011;13658;44.534;18.694;2022-12-07T00:53:22;154.50;;;82.65;;
25824;SDS011;13658;44.534;18.694;2022-12-07T00:55:48;154.85;;;83.20;;
25824;SDS011;13658;44.534;18.694;2022-12-07T00:58:15;155.82;;;81.85;;
25824;SDS011;13658;44.534;18.694;2022-12-07T01:00:41;157.48;;;84.70;;
25824;SDS011;13658;44.534;18.694;2022-12-07T01:03:09;152.00;;;83.70;;
25824;SDS011;13658;44.534;18.694;2022-12-07T01:05:36;149.23;;;79.07;;
25824;SDS011;13658;44.534;18.694;2022-12-07T01:08:03;145.93;;;78.13;;
25824;SDS011;13658;44.534;18.694;2022-12-07T01:10:29;136.88;;;73.47;;
25824;SDS011;13658;44.534;18.694;2022-12-07T01:12:57;137.05;;;73.82;;
25824;SDS011;13658;44.534;18.694;2022-12-07T01:15:24;137.60;;;75.13;;
25824;SDS011;13658;44.534;18.694;2022-12-07T01:17:51;144.05;;;76.43;;
25824;SDS011;13658;44.534;18.694;2022-12-07T01:20:17;147.30;;;77.68;;
25824;SDS011;13658;44.534;18.694;2022-12-07T01:22:43;145.88;;;77.57;;
25824;SDS011;13658;44.534;18.694;2022-12-07T01:25:09;137.23;;;74.35;;
25824;SDS011;13658;44.534;18.694;2022-12-07T01:27:36;139.95;;;74.72;;
25824;SDS011;13658;44.534;18.694;2022-12-07T01:30:03;147.02;;;77.75;;
25824;SDS011;13658;44.534;18.694;2022-12-07T01:32:32;154.90;;;80.18;;
25824;SDS011;13658;44.534;18.694;2022-12-07T01:34:58;143.80;;;76.53;;
25824;SDS011;13658;44.534;18.694;2022-12-07T01:37:24;153.13;;;79.93;;
25824;SDS011;13658;44.534;18.694;2022-12-07T01:39:51;142.43;;;76.22;;
25824;SDS011;13658;44.534;18.694;2022-12-07T01:42:17;137.82;;;74.95;;
25824;SDS011;13658;44.534;18.694;2022-12-07T01:47:41;145.95;;;73.45;;
25824;SDS011;13658;44.534;18.694;2022-12-07T01:50:09;154.05;;;82.63;;
25824;SDS011;13658;44.534;18.694;2022-12-07T01:52:36;156.68;;;86.47;;
25824;SDS011;13658;44.534;18.694;2022-12-07T01:55:03;157.65;;;84.65;;
25824;SDS011;13658;44.534;18.694;2022-12-07T01:57:33;160.48;;;83.35;;
25824;SDS011;13658;44.534;18.694;2022-12-07T02:00:03;167.50;;;86.00;;
25824;SDS011;13658;44.534;18.694;2022-12-07T02:02:44;159.18;;;82.70;;
25824;SDS011;13658;44.534;18.694;2022-12-07T02:05:12;154.23;;;78.32;;
25824;SDS011;13658;44.534;18.694;2022-12-07T02:07:39;153.98;;;76.50;;
25824;SDS011;13658;44.534;18.694;2022-12-07T02:10:13;141.82;;;73.57;;
25824;SDS011;13658;44.534;18.694;2022-12-07T02:12:59;137.75;;;69.78;;
25824;SDS011;13658;44.534;18.694;2022-12-07T02:15:41;131.63;;;64.68;;
25824;SDS011;13658;44.534;18.694;2022-12-07T02:18:35;142.20;;;68.57;;
25824;SDS011;13658;44.534;18.694;2022-12-07T02:27:06;137.02;;;71.90;;
25824;SDS011;13658;44.534;18.694;2022-12-07T02:32:42;134.05;;;69.22;;
25824;SDS011;13658;44.534;18.694;2022-12-07T02:35:35;141.27;;;70.07;;
25824;SDS011;13658;44.534;18.694;2022-12-07T02:38:18;139.52;;;72.18;;
25824;SDS011;13658;44.534;18.694;2022-12-07T02:43:22;132.57;;;70.20;;
25824;SDS011;13658;44.534;18.694;2022-12-07T02:45:55;135.88;;;70.95;;
25824;SDS011;13658;44.534;18.694;2022-12-07T02:48:31;137.15;;;69.15;;
25824;SDS011;13658;44.534;18.694;2022-12-07T02:50:59;131.50;;;67.50;;
25824;SDS011;13658;44.534;18.694;2022-12-07T02:59:02;113.18;;;61.63;;
25824;SDS011;13658;44.534;18.694;2022-12-07T03:04:24;109.68;;;57.85;;
25824;SDS011;13658;44.534;18.694;2022-12-07T03:15:33;107.43;;;56.92;;
25824;SDS011;13658;44.534;18.694;2022-12-07T03:18:06;106.53;;;53.60;;
25824;SDS011;13658;44.534;18.694;2022-12-07T03:20:34;101.47;;;52.85;;
25824;SDS011;13658;44.534;18.694;2022-12-07T03:23:04;91.05;;;50.92;;
25824;SDS011;13658;44.534;18.694;2022-12-07T03:25:33;101.05;;;54.83;;
25824;SDS011;13658;44.534;18.694;2022-12-07T03:28:04;101.25;;;55.90;;
25824;SDS011;13658;44.534;18.694;2022-12-07T03:30:55;101.47;;;54.42;;
25824;SDS011;13658;44.534;18.694;2022-12-07T03:33:26;95.63;;;51.58;;
25824;SDS011;13658;44.534;18.694;2022-12-07T03:38:46;83.78;;;45.33;;
25824;SDS011;13658;44.534;18.694;2022-12-07T03:41:27;83.70;;;45.65;;
25824;SDS011;13658;44.534;18.694;2022-12-07T03:43:56;87.65;;;46.25;;
25824;SDS011;13658;44.534;18.694;2022-12-07T03:51:31;82.65;;;46.08;;
25824;SDS011;13658;44.534;18.694;2022-12-07T03:54:09;86.38;;;46.58;;
25824;SDS011;13658;44.534;18.694;2022-12-07T03:56:39;84.65;;;46.40;;
25824;SDS011;13658;44.534;18.694;2022-12-07T03:59:07;80.60;;;43.35;;
25824;SDS011;13658;44.534;18.694;2022-12-07T04:01:34;85.10;;;47.70;;
25824;SDS011;13658;44.534;18.694;2022-12-07T04:04:00;97.80;;;52.92;;
25824;SDS011;13658;44.534;18.694;2022-12-07T04:06:26;99.13;;;53.80;;
25824;SDS011;13658;44.534;18.694;2022-12-07T04:08:52;102.75;;;55.80;;
25824;SDS011;13658;44.534;18.694;2022-12-07T04:11:18;104.00;;;54.83;;
25824;SDS011;13658;44.534;18.694;2022-12-07T04:13:43;99.85;;;54.45;;
25824;SDS011;13658;44.534;18.694;2022-12-07T04:16:28;102.00;;;53.60;;
25824;SDS011;13658;44.534;18.694;2022-12-07T04:18:54;96.97;;;51.53;;
25824;SDS011;13658;44.534;18.694;2022-12-07T04:21:20;108.55;;;57.38;;
25824;SDS011;13658;44.534;18.694;2022-12-07T04:23:46;103.78;;;56.47;;
25824;SDS011;13658;44.534;18.694;2022-12-07T04:26:11;101.13;;;54.80;;
25824;SDS011;13658;44.534;18.694;2022-12-07T04:28:38;101.47;;;56.08;;
25824;SDS011;13658;44.534;18.694;2022-12-07T04:31:03;94.07;;;50.70;;
25824;SDS011;13658;44.534;18.694;2022-12-07T04:33:30;85.78;;;47.78;;
25824;SDS011;13658;44.534;18.694;2022-12-07T04:35:55;75.82;;;43.88;;
25824;SDS011;13658;44.534;18.694;2022-12-07T04:38:23;75.72;;;41.53;;
25824;SDS011;13658;44.534;18.694;2022-12-07T04:40:49;78.72;;;43.65;;
25824;SDS011;13658;44.534;18.694;2022-12-07T04:43:15;79.68;;;45.95;;
25824;SDS011;13658;44.534;18.694;2022-12-07T04:45:45;78.15;;;43.17;;
25824;SDS011;13658;44.534;18.694;2022-12-07T04:48:12;74.22;;;42.63;;
25824;SDS011;13658;44.534;18.694;2022-12-07T04:50:38;70.15;;;41.35;;
25824;SDS011;13658;44.534;18.694;2022-12-07T04:53:04;75.22;;;43.58;;
25824;SDS011;13658;44.534;18.694;2022-12-07T04:55:30;67.25;;;38.38;;
25824;SDS011;13658;44.534;18.694;2022-12-07T04:57:56;62.00;;;34.13;;
25824;SDS011;13658;44.534;18.694;2022-12-07T05:00:22;60.17;;;32.80;;
25824;SDS011;13658;44.534;18.694;2022-12-07T05:02:48;59.58;;;33.20;;
25824;SDS011;13658;44.534;18.694;2022-12-07T05:05:14;60.63;;;32.75;;
25824;SDS011;13658;44.534;18.694;2022-12-07T05:07:40;59.53;;;33.88;;
25824;SDS011;13658;44.534;18.694;2022-12-07T05:10:06;68.35;;;37.65;;
25824;SDS011;13658;44.534;18.694;2022-12-07T05:12:32;69.00;;;39.70;;
25824;SDS011;13658;44.534;18.694;2022-12-07T05:14:58;70.00;;;39.33;;
25824;SDS011;13658;44.534;18.694;2022-12-07T05:17:24;74.30;;;41.97;;
25824;SDS011;13658;44.534;18.694;2022-12-07T05:19:50;75.10;;;42.70;;
25824;SDS011;13658;44.534;18.694;2022-12-07T05:22:16;85.57;;;45.38;;
25824;SDS011;13658;44.534;18.694;2022-12-07T05:24:42;90.05;;;48.97;;
25824;SDS011;13658;44.534;18.694;2022-12-07T05:27:08;82.05;;;47.10;;
25824;SDS011;13658;44.534;18.694;2022-12-07T05:29:34;80.82;;;45.58;;
25824;SDS011;13658;44.534;18.694;2022-12-07T05:32:00;86.72;;;47.50;;
25824;SDS011;13658;44.534;18.694;2022-12-07T05:34:26;87.88;;;47.67;;
25824;SDS011;13658;44.534;18.694;2022-12-07T05:36:52;94.93;;;52.50;;
25824;SDS011;13658;44.534;18.694;2022-12-07T05:39:18;95.53;;;50.95;;
25824;SDS011;13658;44.534;18.694;2022-12-07T05:41:44;86.13;;;48.78;;
25824;SDS011;13658;44.534;18.694;2022-12-07T05:44:28;86.38;;;48.35;;
25824;SDS011;13658;44.534;18.694;2022-12-07T05:46:54;90.53;;;49.47;;
25824;SDS011;13658;44.534;18.694;2022-12-07T05:49:21;90.28;;;52.80;;
25824;SDS011;13658;44.534;18.694;2022-12-07T05:51:46;101.03;;;56.85;;
25824;SDS011;13658;44.534;18.694;2022-12-07T05:54:12;122.85;;;65.93;;
25824;SDS011;13658;44.534;18.694;2022-12-07T05:56:38;123.28;;;66.13;;
25824;SDS011;13658;44.534;18.694;2022-12-07T05:59:04;125.70;;;66.70;;
25824;SDS011;13658;44.534;18.694;2022-12-07T06:01:56;115.25;;;60.33;;
25824;SDS011;13658;44.534;18.694;2022-12-07T06:04:24;103.07;;;57.72;;
25824;SDS011;13658;44.534;18.694;2022-12-07T06:06:52;95.30;;;51.90;;
25824;SDS011;13658;44.534;18.694;2022-12-07T06:09:20;85.75;;;50.00;;
25824;SDS011;13658;44.534;18.694;2022-12-07T06:11:51;76.35;;;43.13;;
25824;SDS011;13658;44.534;18.694;2022-12-07T06:14:35;79.57;;;44.42;;
25824;SDS011;13658;44.534;18.694;2022-12-07T06:17:01;88.90;;;50.65;;
25824;SDS011;13658;44.534;18.694;2022-12-07T06:19:27;68.53;;;38.45;;
25824;SDS011;13658;44.534;18.694;2022-12-07T06:21:54;62.75;;;36.80;;
25824;SDS011;13658;44.534;18.694;2022-12-07T06:24:20;55.05;;;33.85;;
25824;SDS011;13658;44.534;18.694;2022-12-07T06:26:46;58.53;;;34.28;;
25824;SDS011;13658;44.534;18.694;2022-12-07T06:29:12;55.35;;;33.70;;
25824;SDS011;13658;44.534;18.694;2022-12-07T06:31:39;63.60;;;38.10;;
25824;SDS011;13658;44.534;18.694;2022-12-07T06:34:06;58.33;;;35.33;;
25824;SDS011;13658;44.534;18.694;2022-12-07T06:36:37;56.65;;;33.53;;
25824;SDS011;13658;44.534;18.694;2022-12-07T06:39:03;55.58;;;34.08;;
25824;SDS011;13658;44.534;18.694;2022-12-07T06:41:30;56.75;;;34.80;;
25824;SDS011;13658;44.534;18.694;2022-12-07T06:43:56;54.95;;;33.90;;
25824;SDS011;13658;44.534;18.694;2022-12-07T06:46:23;57.33;;;33.58;;
25824;SDS011;13658;44.534;18.694;2022-12-07T06:48:49;59.92;;;34.97;;
25824;SDS011;13658;44.534;18.694;2022-12-07T06:51:15;61.15;;;37.05;;
25824;SDS011;13658;44.534;18.694;2022-12-07T06:53:41;72.57;;;41.17;;
25824;SDS011;13658;44.534;18.694;2022-12-07T06:56:07;85.50;;;48.25;;
25824;SDS011;13658;44.534;18.694;2022-12-07T06:58:33;151.68;;;84.78;;
25824;SDS011;13658;44.534;18.694;2022-12-07T07:00:59;194.70;;;113.82;;
25824;SDS011;13658;44.534;18.694;2022-12-07T07:03:25;108.47;;;62.33;;
25824;SDS011;13658;44.534;18.694;2022-12-07T07:05:52;85.57;;;48.67;;
25824;SDS011;13658;44.534;18.694;2022-12-07T07:08:21;124.22;;;63.85;;
25824;SDS011;13658;44.534;18.694;2022-12-07T07:10:47;110.95;;;60.85;;
25824;SDS011;13658;44.534;18.694;2022-12-07T07:13:14;134.90;;;76.88;;
25824;SDS011;13658;44.534;18.694;2022-12-07T07:15:40;148.98;;;83.95;;
25824;SDS011;13658;44.534;18.694;2022-12-07T07:18:06;126.60;;;73.10;;
25824;SDS011;13658;44.534;18.694;2022-12-07T07:20:32;103.00;;;58.72;;
25824;SDS011;13658;44.534;18.694;2022-12-07T07:22:58;114.25;;;63.22;;
25824;SDS011;13658;44.534;18.694;2022-12-07T07:25:24;112.60;;;63.53;;
25824;SDS011;13658;44.534;18.694;2022-12-07T07:27:50;134.65;;;76.75;;
25824;SDS011;13658;44.534;18.694;2022-12-07T07:30:16;160.98;;;87.88;;
25824;SDS011;13658;44.534;18.694;2022-12-07T07:32:42;157.18;;;87.03;;
25824;SDS011;13658;44.534;18.694;2022-12-07T07:35:08;144.90;;;78.65;;
25824;SDS011;13658;44.534;18.694;2022-12-07T07:37:34;128.40;;;69.35;;
25824;SDS011;13658;44.534;18.694;2022-12-07T07:40:00;85.15;;;50.13;;
25824;SDS011;13658;44.534;18.694;2022-12-07T07:42:26;112.75;;;64.00;;
25824;SDS011;13658;44.534;18.694;2022-12-07T07:44:52;112.75;;;61.47;;
25824;SDS011;13658;44.534;18.694;2022-12-07T07:47:17;117.93;;;62.15;;
25824;SDS011;13658;44.534;18.694;2022-12-07T07:49:43;98.75;;;57.50;;
25824;SDS011;13658;44.534;18.694;2022-12-07T07:52:09;104.90;;;59.38;;
25824;SDS011;13658;44.534;18.694;2022-12-07T07:54:35;97.38;;;56.85;;
25824;SDS011;13658;44.534;18.694;2022-12-07T07:57:01;85.60;;;54.08;;
25824;SDS011;13658;44.534;18.694;2022-12-07T07:59:27;102.25;;;58.85;;
25824;SDS011;13658;44.534;18.694;2022-12-07T08:01:53;139.07;;;74.35;;
25824;SDS011;13658;44.534;18.694;2022-12-07T08:04:19;103.55;;;60.92;;
25824;SDS011;13658;44.534;18.694;2022-12-07T08:06:45;93.40;;;52.92;;
25824;SDS011;13658;44.534;18.694;2022-12-07T08:09:11;91.13;;;49.80;;
25824;SDS011;13658;44.534;18.694;2022-12-07T08:11:38;94.65;;;53.83;;
25824;SDS011;13658;44.534;18.694;2022-12-07T08:14:03;99.07;;;54.83;;
25824;SDS011;13658;44.534;18.694;2022-12-07T08:16:29;107.55;;;61.95;;
25824;SDS011;13658;44.534;18.694;2022-12-07T08:18:55;100.30;;;55.42;;
25824;SDS011;13658;44.534;18.694;2022-12-07T08:21:21;75.22;;;45.40;;
25824;SDS011;13658;44.534;18.694;2022-12-07T08:23:47;85.57;;;50.58;;
25824;SDS011;13658;44.534;18.694;2022-12-07T08:26:15;77.45;;;46.97;;
25824;SDS011;13658;44.534;18.694;2022-12-07T08:28:41;84.30;;;49.95;;
25824;SDS011;13658;44.534;18.694;2022-12-07T08:31:10;72.82;;;44.83;;
25824;SDS011;13658;44.534;18.694;2022-12-07T08:33:38;82.70;;;48.60;;
25824;SDS011;13658;44.534;18.694;2022-12-07T08:36:05;99.93;;;57.53;;
25824;SDS011;13658;44.534;18.694;2022-12-07T08:38:36;123.00;;;67.55;;
25824;SDS011;13658;44.534;18.694;2022-12-07T08:41:03;141.70;;;77.38;;
25824;SDS011;13658;44.534;18.694;2022-12-07T08:43:29;135.55;;;76.40;;
25824;SDS011;13658;44.534;18.694;2022-12-07T08:49:03;74.50;;;45.53;;
25824;SDS011;13658;44.534;18.694;2022-12-07T08:51:33;56.30;;;34.05;;
25824;SDS011;13658;44.534;18.694;2022-12-07T08:54:00;70.65;;;43.58;;
25824;SDS011;13658;44.534;18.694;2022-12-07T08:56:28;55.88;;;34.92;;
25824;SDS011;13658;44.534;18.694;2022-12-07T08:58:54;58.17;;;36.45;;
25824;SDS011;13658;44.534;18.694;2022-12-07T09:01:20;59.83;;;36.35;;
25824;SDS011;13658;44.534;18.694;2022-12-07T09:03:46;206.75;;;109.28;;
25824;SDS011;13658;44.534;18.694;2022-12-07T09:06:12;119.07;;;66.10;;
25824;SDS011;13658;44.534;18.694;2022-12-07T09:08:39;124.72;;;65.85;;
25824;SDS011;13658;44.534;18.694;2022-12-07T09:11:09;80.97;;;48.35;;
25824;SDS011;13658;44.534;18.694;2022-12-07T09:13:34;104.25;;;59.78;;
25824;SDS011;13658;44.534;18.694;2022-12-07T09:16:01;75.10;;;46.05;;
25824;SDS011;13658;44.534;18.694;2022-12-07T09:18:27;73.03;;;44.78;;
25824;SDS011;13658;44.534;18.694;2022-12-07T09:20:53;56.60;;;33.78;;
25824;SDS011;13658;44.534;18.694;2022-12-07T09:23:19;52.20;;;32.85;;
25824;SDS011;13658;44.534;18.694;2022-12-07T09:25:45;75.65;;;49.10;;
25824;SDS011;13658;44.534;18.694;2022-12-07T09:28:11;54.35;;;35.33;;
25824;SDS011;13658;44.534;18.694;2022-12-07T09:30:37;92.07;;;56.90;;
25824;SDS011;13658;44.534;18.694;2022-12-07T09:33:03;168.05;;;97.70;;
25824;SDS011;13658;44.534;18.694;2022-12-07T09:35:29;87.90;;;52.80;;
25824;SDS011;13658;44.534;18.694;2022-12-07T09:37:55;126.10;;;64.60;;
25824;SDS011;13658;44.534;18.694;2022-12-07T09:40:22;150.15;;;78.50;;
25824;SDS011;13658;44.534;18.694;2022-12-07T09:42:50;87.53;;;54.47;;
25824;SDS011;13658;44.534;18.694;2022-12-07T09:45:24;87.57;;;53.45;;
25824;SDS011;13658;44.534;18.694;2022-12-07T09:47:53;86.97;;;52.28;;
25824;SDS011;13658;44.534;18.694;2022-12-07T09:50:21;125.47;;;65.75;;
25824;SDS011;13658;44.534;18.694;2022-12-07T09:52:50;85.53;;;53.95;;
25824;SDS011;13658;44.534;18.694;2022-12-07T09:55:27;95.30;;;59.70;;
25824;SDS011;13658;44.534;18.694;2022-12-07T09:57:54;81.75;;;52.40;;
25824;SDS011;13658;44.534;18.694;2022-12-07T10:00:22;185.55;;;105.97;;
25824;SDS011;13658;44.534;18.694;2022-12-07T10:02:57;71.63;;;46.30;;
25824;SDS011;13658;44.534;18.694;2022-12-07T10:05:32;102.30;;;57.75;;
25824;SDS011;13658;44.534;18.694;2022-12-07T10:08:14;90.63;;;53.63;;
25824;SDS011;13658;44.534;18.694;2022-12-07T10:10:42;71.40;;;46.80;;
25824;SDS011;13658;44.534;18.694;2022-12-07T10:13:13;67.38;;;42.95;;
25824;SDS011;13658;44.534;18.694;2022-12-07T10:15:44;55.00;;;36.80;;
25824;SDS011;13658;44.534;18.694;2022-12-07T10:18:17;45.50;;;30.70;;
25824;SDS011;13658;44.534;18.694;2022-12-07T10:20:48;53.70;;;36.63;;
25824;SDS011;13658;44.534;18.694;2022-12-07T10:23:17;60.38;;;39.92;;
25824;SDS011;13658;44.534;18.694;2022-12-07T10:25:44;58.00;;;38.40;;
25824;SDS011;13658;44.534;18.694;2022-12-07T10:28:12;54.95;;;35.67;;
25824;SDS011;13658;44.534;18.694;2022-12-07T10:30:54;52.28;;;35.65;;
25824;SDS011;13658;44.534;18.694;2022-12-07T10:36:01;48.03;;;32.67;;
25824;SDS011;13658;44.534;18.694;2022-12-07T10:39:00;43.60;;;30.38;;
25824;SDS011;13658;44.534;18.694;2022-12-07T10:41:28;43.72;;;29.92;;
25824;SDS011;13658;44.534;18.694;2022-12-07T10:43:55;42.08;;;27.95;;
25824;SDS011;13658;44.534;18.694;2022-12-07T10:49:03;44.50;;;30.33;;
25824;SDS011;13658;44.534;18.694;2022-12-07T10:57:41;43.47;;;29.20;;
25824;SDS011;13658;44.534;18.694;2022-12-07T11:02:59;42.28;;;29.60;;
25824;SDS011;13658;44.534;18.694;2022-12-07T11:05:35;38.55;;;27.80;;
25824;SDS011;13658;44.534;18.694;2022-12-07T11:11:05;51.53;;;34.10;;
25824;SDS011;13658;44.534;18.694;2022-12-07T11:13:48;69.90;;;43.72;;
25824;SDS011;13658;44.534;18.694;2022-12-07T11:22:06;32.05;;;24.02;;
25824;SDS011;13658;44.534;18.694;2022-12-07T11:33:09;42.33;;;30.58;;
25824;SDS011;13658;44.534;18.694;2022-12-07T11:39:04;60.58;;;40.00;;
25824;SDS011;13658;44.534;18.694;2022-12-07T11:41:56;58.30;;;39.22;;
25824;SDS011;13658;44.534;18.694;2022-12-07T11:44:33;53.45;;;38.08;;
25824;SDS011;13658;44.534;18.694;2022-12-07T11:47:17;71.47;;;46.70;;
25824;SDS011;13658;44.534;18.694;2022-12-07T11:52:45;73.72;;;48.13;;
25824;SDS011;13658;44.534;18.694;2022-12-07T11:55:17;78.05;;;48.30;;
25824;SDS011;13658;44.534;18.694;2022-12-07T11:57:51;76.30;;;48.92;;
25824;SDS011;13658;44.534;18.694;2022-12-07T12:00:39;77.85;;;50.00;;
25824;SDS011;13658;44.534;18.694;2022-12-07T12:03:11;78.22;;;49.63;;
25824;SDS011;13658;44.534;18.694;2022-12-07T12:05:41;86.53;;;54.05;;
25824;SDS011;13658;44.534;18.694;2022-12-07T12:08:14;72.35;;;45.78;;
25824;SDS011;13658;44.534;18.694;2022-12-07T12:10:51;67.18;;;44.97;;
25824;SDS011;13658;44.534;18.694;2022-12-07T12:21:27;55.08;;;38.75;;
25824;SDS011;13658;44.534;18.694;2022-12-07T12:29:02;57.17;;;38.22;;
25824;SDS011;13658;44.534;18.694;2022-12-07T12:31:35;64.72;;;44.47;;
25824;SDS011;13658;44.534;18.694;2022-12-07T12:42:55;100.57;;;60.78;;
25824;SDS011;13658;44.534;18.694;2022-12-07T12:45:22;91.18;;;58.65;;
25824;SDS011;13658;44.534;18.694;2022-12-07T12:47:57;94.85;;;58.38;;
25824;SDS011;13658;44.534;18.694;2022-12-07T12:50:31;88.25;;;56.60;;
25824;SDS011;13658;44.534;18.694;2022-12-07T12:53:21;91.18;;;57.67;;
25824;SDS011;13658;44.534;18.694;2022-12-07T12:58:34;96.18;;;58.28;;
25824;SDS011;13658;44.534;18.694;2022-12-07T13:03:55;113.47;;;71.97;;
25824;SDS011;13658;44.534;18.694;2022-12-07T13:08:52;91.97;;;59.03;;
25824;SDS011;13658;44.534;18.694;2022-12-07T13:11:28;88.45;;;56.55;;
25824;SDS011;13658;44.534;18.694;2022-12-07T13:24:56;84.50;;;52.67;;
25824;SDS011;13658;44.534;18.694;2022-12-07T13:27:25;84.38;;;52.38;;
25824;SDS011;13658;44.534;18.694;2022-12-07T13:29:52;71.60;;;44.47;;
25824;SDS011;13658;44.534;18.694;2022-12-07T13:32:25;104.18;;;59.78;;
25824;SDS011;13658;44.534;18.694;2022-12-07T13:34:53;70.70;;;44.00;;
25824;SDS011;13658;44.534;18.694;2022-12-07T13:37:26;66.88;;;44.17;;
25824;SDS011;13658;44.534;18.694;2022-12-07T13:39:54;61.88;;;39.78;;
25824;SDS011;13658;44.534;18.694;2022-12-07T13:42:29;62.78;;;38.85;;
25824;SDS011;13658;44.534;18.694;2022-12-07T13:44:57;69.07;;;42.50;;
25824;SDS011;13658;44.534;18.694;2022-12-07T13:47:34;80.13;;;46.70;;
25824;SDS011;13658;44.534;18.694;2022-12-07T13:50:23;65.57;;;38.72;;
25824;SDS011;13658;44.534;18.694;2022-12-07T13:52:54;177.23;;;91.97;;
25824;SDS011;13658;44.534;18.694;2022-12-07T13:55:24;80.15;;;48.67;;
25824;SDS011;13658;44.534;18.694;2022-12-07T13:57:52;74.15;;;46.40;;
25824;SDS011;13658;44.534;18.694;2022-12-07T14:00:24;55.10;;;34.78;;
25824;SDS011;13658;44.534;18.694;2022-12-07T14:03:22;34.50;;;23.27;;
25824;SDS011;13658;44.534;18.694;2022-12-07T14:06:11;43.65;;;28.58;;
25824;SDS011;13658;44.534;18.694;2022-12-07T14:08:39;66.28;;;37.85;;
25824;SDS011;13658;44.534;18.694;2022-12-07T14:11:05;32.13;;;20.38;;
25824;SDS011;13658;44.534;18.694;2022-12-07T14:13:39;32.47;;;22.10;;
25824;SDS011;13658;44.534;18.694;2022-12-07T14:18:43;45.22;;;26.73;;
25824;SDS011;13658;44.534;18.694;2022-12-07T14:23:36;21.55;;;14.30;;
25824;SDS011;13658;44.534;18.694;2022-12-07T14:26:06;19.88;;;12.75;;
25824;SDS011;13658;44.534;18.694;2022-12-07T14:28:41;14.70;;;10.18;;
25824;SDS011;13658;44.534;18.694;2022-12-07T14:31:12;16.20;;;11.00;;
25824;SDS011;13658;44.534;18.694;2022-12-07T14:33:38;15.48;;;10.63;;
25824;SDS011;13658;44.534;18.694;2022-12-07T14:36:05;15.30;;;10.82;;
25824;SDS011;13658;44.534;18.694;2022-12-07T14:38:35;24.42;;;15.63;;
25824;SDS011;13658;44.534;18.694;2022-12-07T14:41:02;18.60;;;12.90;;
25824;SDS011;13658;44.534;18.694;2022-12-07T14:43:48;27.17;;;15.80;;
25824;SDS011;13658;44.534;18.694;2022-12-07T14:46:14;25.05;;;16.23;;
25824;SDS011;13658;44.534;18.694;2022-12-07T14:48:40;25.02;;;16.65;;
25824;SDS011;13658;44.534;18.694;2022-12-07T14:51:07;27.60;;;16.38;;
25824;SDS011;13658;44.534;18.694;2022-12-07T14:53:37;26.45;;;16.38;;
25824;SDS011;13658;44.534;18.694;2022-12-07T14:56:06;24.38;;;15.75;;
25824;SDS011;13658;44.534;18.694;2022-12-07T14:58:32;30.25;;;15.82;;
25824;SDS011;13658;44.534;18.694;2022-12-07T15:00:58;41.58;;;25.02;;
25824;SDS011;13658;44.534;18.694;2022-12-07T15:03:24;18.48;;;12.93;;
25824;SDS011;13658;44.534;18.694;2022-12-07T15:05:52;23.23;;;13.68;;
25824;SDS011;13658;44.534;18.694;2022-12-07T15:08:18;40.75;;;22.15;;
25824;SDS011;13658;44.534;18.694;2022-12-07T15:10:44;48.85;;;26.98;;
25824;SDS011;13658;44.534;18.694;2022-12-07T15:13:10;21.27;;;13.40;;
25824;SDS011;13658;44.534;18.694;2022-12-07T15:15:54;23.63;;;15.07;;
25824;SDS011;13658;44.534;18.694;2022-12-07T15:18:21;36.75;;;20.83;;
25824;SDS011;13658;44.534;18.694;2022-12-07T15:20:48;33.25;;;17.92;;
25824;SDS011;13658;44.534;18.694;2022-12-07T15:23:14;24.25;;;15.43;;
25824;SDS011;13658;44.534;18.694;2022-12-07T15:25:41;29.10;;;16.70;;
25824;SDS011;13658;44.534;18.694;2022-12-07T15:28:08;34.40;;;19.70;;
25824;SDS011;13658;44.534;18.694;2022-12-07T15:30:34;29.27;;;16.90;;
25824;SDS011;13658;44.534;18.694;2022-12-07T15:33:02;38.50;;;21.67;;
25824;SDS011;13658;44.534;18.694;2022-12-07T15:35:28;27.73;;;15.20;;
25824;SDS011;13658;44.534;18.694;2022-12-07T15:37:54;27.58;;;16.35;;
25824;SDS011;13658;44.534;18.694;2022-12-07T15:40:20;24.77;;;15.60;;
25824;SDS011;13658;44.534;18.694;2022-12-07T15:42:46;25.88;;;16.02;;
25824;SDS011;13658;44.534;18.694;2022-12-07T15:45:12;26.70;;;16.50;;
25824;SDS011;13658;44.534;18.694;2022-12-07T15:47:39;25.00;;;15.05;;
25824;SDS011;13658;44.534;18.694;2022-12-07T15:50:08;26.45;;;15.95;;
25824;SDS011;13658;44.534;18.694;2022-12-07T15:52:37;28.17;;;16.85;;
25824;SDS011;13658;44.534;18.694;2022-12-07T15:55:04;28.60;;;17.30;;
25824;SDS011;13658;44.534;18.694;2022-12-07T15:57:34;26.67;;;16.45;;
25824;SDS011;13658;44.534;18.694;2022-12-07T16:00:02;35.50;;;21.17;;
25824;SDS011;13658;44.534;18.694;2022-12-07T16:02:29;27.23;;;17.63;;
25824;SDS011;13658;44.534;18.694;2022-12-07T16:04:55;29.90;;;18.05;;
25824;SDS011;13658;44.534;18.694;2022-12-07T16:07:21;39.00;;;22.15;;
25824;SDS011;13658;44.534;18.694;2022-12-07T16:09:47;45.08;;;26.40;;
25824;SDS011;13658;44.534;18.694;2022-12-07T16:12:14;39.97;;;22.38;;
25824;SDS011;13658;44.534;18.694;2022-12-07T16:14:41;46.15;;;25.52;;
25824;SDS011;13658;44.534;18.694;2022-12-07T16:17:07;41.33;;;23.92;;
25824;SDS011;13658;44.534;18.694;2022-12-07T16:19:34;33.75;;;19.55;;
25824;SDS011;13658;44.534;18.694;2022-12-07T16:22:01;47.58;;;26.35;;